createdAt,value
2018-12-14T00:07:25.994Z,66.66
2018-12-14T00:12:29.180Z,65.22
2018-12-14T00:17:32.340Z,65.38
2018-12-14T00:22:35.526Z,65.80
2018-12-14T00:27:38.771Z,65.08
2018-12-14T00:32:41.921Z,64.89
2018-12-14T00:37:45.090Z,65.69
2018-12-14T00:42:48.229Z,65.05
2018-12-14T00:47:51.366Z,64.93
2018-12-14T00:52:54.503Z,65.44
2018-12-14T00:57:57.622Z,65.57
2018-12-14T01:03:00.792Z,64.36
2018-12-14T01:08:04.005Z,63.98
2018-12-14T01:13:07.121Z,64.51
2018-12-14T01:18:10.258Z,64.81
2018-12-14T01:23:13.402Z,63.89
2018-12-14T01:28:16.621Z,64.45
2018-12-14T01:33:19.725Z,64.18
2018-12-14T01:38:22.815Z,65.19
2018-12-14T01:43:26.034Z,64.68
2018-12-14T01:48:29.249Z,65.48
2018-12-14T01:53:32.454Z,64.79
2018-12-14T01:58:35.631Z,64.22
2018-12-14T02:03:38.770Z,64.60
2018-12-14T02:08:41.890Z,65.22
2018-12-14T02:13:45.033Z,64.68
2018-12-14T02:18:48.198Z,63.91
2018-12-14T02:23:51.319Z,64.71
2018-12-14T02:28:54.584Z,64.24
2018-12-14T02:33:57.704Z,63.97
2018-12-14T02:39:00.806Z,64.00
2018-12-14T02:44:04.203Z,64.10
2018-12-14T02:49:07.369Z,63.97
2018-12-14T02:54:10.476Z,63.73
2018-12-14T02:59:13.584Z,63.10
2018-12-14T03:04:16.670Z,64.20
2018-12-14T03:09:19.743Z,63.94
2018-12-14T03:14:22.884Z,63.22
2018-12-14T03:19:25.985Z,63.36
2018-12-14T03:24:29.235Z,64.17
2018-12-14T03:29:32.358Z,63.84
2018-12-14T03:34:35.548Z,63.88
2018-12-14T03:39:38.836Z,64.16
2018-12-14T03:44:42.149Z,63.79
2018-12-14T03:49:45.257Z,63.36
2018-12-14T03:54:48.380Z,63.43
2018-12-14T03:59:51.494Z,62.50
2018-12-14T04:04:54.600Z,63.43
2018-12-14T04:09:57.693Z,63.57
2018-12-14T04:15:00.804Z,63.30
2018-12-14T04:20:04.873Z,63.64
2018-12-14T04:25:08.310Z,63.25
2018-12-14T04:30:11.631Z,63.07
2018-12-14T04:35:14.770Z,63.17
2018-12-14T04:40:17.908Z,63.79
2018-12-14T04:45:21.046Z,64.37
2018-12-14T04:50:24.298Z,64.27
2018-12-14T04:55:27.429Z,63.71
2018-12-14T05:00:30.613Z,63.17
2018-12-14T05:05:33.777Z,63.10
2018-12-14T05:10:36.938Z,63.18
2018-12-14T05:15:40.070Z,62.99
2018-12-14T05:20:43.189Z,63.19
2018-12-14T05:25:46.342Z,63.39
2018-12-14T05:30:49.429Z,63.32
2018-12-14T05:35:52.557Z,63.14
2018-12-14T05:40:55.660Z,63.53
2018-12-14T05:45:58.780Z,63.55
2018-12-14T05:51:01.903Z,62.66
2018-12-14T05:56:05.073Z,63.15
2018-12-14T06:01:08.202Z,63.47
2018-12-14T06:06:11.350Z,64.60
2018-12-14T06:11:14.561Z,62.97
2018-12-14T06:16:17.708Z,62.42
2018-12-14T06:21:20.920Z,63.15
2018-12-14T06:26:24.054Z,62.48
2018-12-14T06:31:27.149Z,62.84
2018-12-14T06:36:30.244Z,62.62
2018-12-14T06:41:33.749Z,63.25
2018-12-14T06:46:36.894Z,63.62
2018-12-14T06:51:40.105Z,63.63
2018-12-14T06:56:43.247Z,63.73
2018-12-14T07:01:46.340Z,62.76
2018-12-14T07:06:49.444Z,62.83
2018-12-14T07:11:52.574Z,63.19
2018-12-14T07:16:55.681Z,63.56
2018-12-14T07:21:58.761Z,63.05
2018-12-14T07:27:02.032Z,62.18
2018-12-14T07:32:05.149Z,61.98
2018-12-14T07:37:08.266Z,61.97
2018-12-14T07:42:11.374Z,62.44
2018-12-14T07:47:14.617Z,62.93
2018-12-14T07:52:17.719Z,63.28
2018-12-14T07:57:20.850Z,61.50
2018-12-14T08:02:24.295Z,62.39
2018-12-14T08:07:27.571Z,61.94
2018-12-14T08:12:30.679Z,61.79
2018-12-14T08:17:33.805Z,62.29
2018-12-14T08:22:36.892Z,61.08
2018-12-14T08:27:40.007Z,61.75
2018-12-14T08:32:43.091Z,62.13
2018-12-14T08:37:46.224Z,61.90
2018-12-14T08:42:49.407Z,62.12
2018-12-14T08:47:52.774Z,63.05
2018-12-14T08:52:55.890Z,63.16
2018-12-14T08:57:59.001Z,64.16
2018-12-14T09:03:02.159Z,63.20
2018-12-14T09:08:05.331Z,63.62
2018-12-14T09:13:08.496Z,63.24
2018-12-14T09:18:11.632Z,63.53
2018-12-14T09:23:14.808Z,63.56
2018-12-14T09:28:17.947Z,64.43
2018-12-14T09:33:21.110Z,63.76
2018-12-14T09:38:24.332Z,64.60
2018-12-14T09:43:27.519Z,64.93
2018-12-14T09:48:30.656Z,63.06
2018-12-14T09:53:33.789Z,62.81
2018-12-14T09:58:38.024Z,61.66
2018-12-14T10:03:41.584Z,60.76
2018-12-14T10:08:44.698Z,60.81
2018-12-14T10:13:47.826Z,60.90
2018-12-14T10:18:51.497Z,61.57
2018-12-14T10:23:54.615Z,61.46
2018-12-14T10:28:58.730Z,60.85
2018-12-14T10:34:02.112Z,61.42
2018-12-14T10:39:06.411Z,61.62
2018-12-14T10:44:09.621Z,61.57
2018-12-14T10:49:12.810Z,61.09
2018-12-14T10:54:16.405Z,59.91
2018-12-14T10:59:19.563Z,59.99
2018-12-14T11:04:23.905Z,60.31
2018-12-14T11:09:27.246Z,60.07
2018-12-14T11:14:30.370Z,60.36
2018-12-14T11:19:33.532Z,59.75
2018-12-14T11:24:36.708Z,59.93
2018-12-14T11:29:40.153Z,60.96
2018-12-14T11:34:43.287Z,59.97
2018-12-14T11:39:46.444Z,60.09
2018-12-14T11:44:49.654Z,60.50
2018-12-14T11:49:52.831Z,60.83
2018-12-14T11:54:56.132Z,60.96
2018-12-14T11:59:59.301Z,60.25
2018-12-14T12:05:02.575Z,59.56
2018-12-14T12:10:08.730Z,60.83
2018-12-14T12:15:11.936Z,60.60
2018-12-14T12:20:15.315Z,60.00
2018-12-14T12:25:18.549Z,60.12
2018-12-14T12:30:21.764Z,60.96
2018-12-14T12:35:24.925Z,60.47
2018-12-14T12:40:28.080Z,60.60
2018-12-14T12:45:31.208Z,60.29
2018-12-14T12:50:34.328Z,61.74
2018-12-14T12:55:37.489Z,60.84
2018-12-14T13:00:41.519Z,60.33
2018-12-14T13:05:44.732Z,61.11
2018-12-14T13:10:47.907Z,61.60
2018-12-14T13:15:51.101Z,60.75
2018-12-14T13:20:54.385Z,61.63
2018-12-14T13:25:57.532Z,60.10
2018-12-14T13:31:00.757Z,60.81
2018-12-14T13:36:04.026Z,61.28
2018-12-14T13:41:07.247Z,61.56
2018-12-14T13:46:10.690Z,61.26
2018-12-14T13:51:13.984Z,61.87
2018-12-14T13:56:17.242Z,62.29
2018-12-14T14:01:20.482Z,61.06
2018-12-14T14:06:23.631Z,61.81
2018-12-14T14:11:26.812Z,61.19
2018-12-14T14:16:30.009Z,61.52
2018-12-14T14:21:33.266Z,62.65
2018-12-14T14:26:36.492Z,61.92
2018-12-14T14:31:39.698Z,62.13
2018-12-14T14:36:42.889Z,61.97
2018-12-14T14:41:46.490Z,61.61
2018-12-14T14:46:49.686Z,61.79
2018-12-14T14:51:53.277Z,61.65
2018-12-14T14:56:56.463Z,61.69
2018-12-14T15:01:59.586Z,61.73
2018-12-14T15:07:02.780Z,62.78
2018-12-14T15:12:06.003Z,62.22
2018-12-14T15:17:09.202Z,61.96
2018-12-14T15:22:12.402Z,61.47
2018-12-14T15:27:15.633Z,62.12
2018-12-14T15:32:19.138Z,62.38
2018-12-14T15:37:22.297Z,62.25
2018-12-14T15:42:25.415Z,62.47
2018-12-14T15:47:28.680Z,62.33
2018-12-14T15:52:31.894Z,62.28
2018-12-14T15:57:35.093Z,63.05
2018-12-14T16:02:38.232Z,62.60
2018-12-14T16:07:41.413Z,62.34
2018-12-14T16:12:44.704Z,62.43
2018-12-14T16:17:48.097Z,62.65
2018-12-14T16:22:51.405Z,62.59
2018-12-14T16:27:54.596Z,62.92
2018-12-14T16:32:57.925Z,63.18
2018-12-14T16:38:01.107Z,62.73
2018-12-14T16:43:04.345Z,63.11
2018-12-14T16:48:07.635Z,63.10
2018-12-14T16:53:10.954Z,62.66
2018-12-14T16:58:14.245Z,63.23
2018-12-14T17:03:17.463Z,62.70
2018-12-14T17:08:20.664Z,62.26
2018-12-14T17:13:23.882Z,62.58
2018-12-14T17:18:27.170Z,62.31
2018-12-14T17:23:30.409Z,62.32
2018-12-14T17:28:33.694Z,61.28
2018-12-14T17:33:36.882Z,61.23
2018-12-14T17:38:40.326Z,61.83
2018-12-14T17:43:43.546Z,62.15
2018-12-14T17:48:46.983Z,61.62
2018-12-14T17:53:50.181Z,60.61
2018-12-14T17:58:53.558Z,60.97
2018-12-14T18:03:57.122Z,61.77
2018-12-14T18:09:01.261Z,61.07
2018-12-14T18:14:04.488Z,61.44
2018-12-14T18:19:07.868Z,60.73
2018-12-14T18:24:11.081Z,60.21
2018-12-14T18:29:14.382Z,61.47
2018-12-14T18:34:17.892Z,60.45
2018-12-14T18:39:21.087Z,60.85
2018-12-14T18:44:24.358Z,61.91
2018-12-14T18:49:27.525Z,62.28
2018-12-14T18:54:30.727Z,61.78
2018-12-14T18:59:34.129Z,61.66
2018-12-14T19:04:37.306Z,60.68
2018-12-14T19:09:40.528Z,61.92
2018-12-14T19:14:43.763Z,62.07
2018-12-14T19:19:46.959Z,62.13
2018-12-14T19:24:50.173Z,62.38
2018-12-14T19:29:53.382Z,62.45
2018-12-14T19:34:56.632Z,61.88
2018-12-14T19:39:59.841Z,62.58
2018-12-14T19:45:03.441Z,62.50
2018-12-14T19:50:07.542Z,62.89
2018-12-14T19:55:10.769Z,61.70
2018-12-14T20:00:14.177Z,62.47
2018-12-14T20:05:17.374Z,62.28
2018-12-14T20:10:20.705Z,61.17
2018-12-14T20:15:23.976Z,60.54
2018-12-14T20:20:27.165Z,60.89
2018-12-14T20:25:30.451Z,60.45
2018-12-14T20:30:33.704Z,60.37
2018-12-14T20:35:36.988Z,61.23
2018-12-14T20:40:40.291Z,61.25
2018-12-14T20:45:43.560Z,60.28
2018-12-14T20:50:46.822Z,60.93
2018-12-14T20:55:50.081Z,62.15
2018-12-14T21:00:53.290Z,62.17
2018-12-14T21:05:56.799Z,61.99
2018-12-14T21:11:00.017Z,61.82
2018-12-14T21:16:03.343Z,60.67
2018-12-14T21:21:06.598Z,60.67
2018-12-14T21:26:09.890Z,61.57
2018-12-14T21:31:13.198Z,61.31
2018-12-14T21:36:16.402Z,58.98
2018-12-14T21:41:19.590Z,60.40
2018-12-14T21:46:22.793Z,60.58
2018-12-14T21:51:26.044Z,60.91
2018-12-14T21:56:29.902Z,59.92
2018-12-14T22:01:33.134Z,60.76
2018-12-14T22:06:36.346Z,60.58
2018-12-14T22:11:39.535Z,61.41
2018-12-14T22:16:43.616Z,59.91
2018-12-14T22:21:46.843Z,60.87
2018-12-14T22:26:50.029Z,60.89
2018-12-14T22:31:53.302Z,60.25
2018-12-14T22:36:56.494Z,59.55
2018-12-14T22:41:59.799Z,60.96
2018-12-14T22:47:02.985Z,61.88
2018-12-14T22:52:06.157Z,61.22
2018-12-14T22:57:09.301Z,60.20
2018-12-14T23:02:12.476Z,60.85
2018-12-14T23:07:15.689Z,60.94
2018-12-14T23:12:18.911Z,60.63
2018-12-14T23:17:22.121Z,61.14
2018-12-14T23:22:25.302Z,61.28
2018-12-14T23:27:28.463Z,62.28
2018-12-14T23:32:31.625Z,61.51
2018-12-14T23:37:34.879Z,61.18
2018-12-14T23:42:38.089Z,60.17
2018-12-14T23:47:41.268Z,60.40
2018-12-14T23:52:44.462Z,61.73
2018-12-14T23:57:47.621Z,64.36
